Time;durP1;ratioP1;P1;durP2;ratioP2;P2;SDS_P1;SDS_P2;PMS_P1;PMS_P2;Temp;Humidity;BMP_temperature;BMP_pressure;BME280_temperature;BME280_humidity;BME280_pressure;Samples;Min_cycle;Max_cycle;Signal;HPM_P1;HPM_P2
2024/02/17 00:02:15;;;;;;;4.35;2.90;;;;;;;16.71;82.45;101546.44;5041827;27;98967;-77
2024/02/17 00:04:43;;;;;;;8.88;3.28;;;;;;;16.90;81.34;101557.06;5038664;27;99568;-77
2024/02/17 00:07:09;;;;;;;3.63;3.22;;;;;;;17.08;81.13;101562.38;5041320;27;96809;-77
2024/02/17 00:09:36;;;;;;;5.55;3.65;;;;;;;17.16;80.71;101561.13;5038189;27;99077;-78
2024/02/17 00:12:03;;;;;;;4.18;3.30;;;;;;;16.92;81.07;101558.75;5037272;27;98087;-69
2024/02/17 00:14:29;;;;;;;7.78;3.58;;;;;;;17.17;80.18;101570.88;5035278;27;96785;-70
2024/02/17 00:16:55;;;;;;;4.30;3.63;;;;;;;16.96;80.99;101565.66;5036112;27;97230;-70
2024/02/17 00:19:22;;;;;;;5.22;3.28;;;;;;;17.00;81.56;101572.56;5035147;27;99328;-76
2024/02/17 00:21:50;;;;;;;5.10;3.83;;;;;;;17.05;81.02;101577.69;5031841;27;97804;-77
2024/02/17 00:24:16;;;;;;;5.88;3.53;;;;;;;17.20;80.37;101576.06;5032543;27;96776;-77
2024/02/17 00:26:43;;;;;;;4.18;3.50;;;;;;;17.17;80.57;101595.78;5033317;27;96911;-76
2024/02/17 00:29:10;;;;;;;3.65;3.28;;;;;;;17.09;80.68;101601.47;5033907;27;99018;-77
2024/02/17 00:31:36;;;;;;;5.93;4.03;;;;;;;17.39;79.72;101600.91;5031738;27;98802;-77
2024/02/17 00:34:03;;;;;;;5.18;3.80;;;;;;;17.18;79.78;101596.63;5029497;27;97529;-76
2024/02/17 00:36:29;;;;;;;4.32;3.65;;;;;;;16.74;81.73;101600.50;5037086;27;99537;-76
2024/02/17 00:38:57;;;;;;;9.27;4.03;;;;;;;16.69;82.13;101607.88;5033295;27;98988;-77
2024/02/17 00:41:23;;;;;;;5.47;3.75;;;;;;;16.74;82.48;101607.66;5037175;27;101997;-70
2024/02/17 00:43:50;;;;;;;4.72;4.07;;;;;;;16.40;83.12;101599.47;5034122;27;97414;-69
2024/02/17 00:46:16;;;;;;;6.22;3.80;;;;;;;16.23;84.47;101576.22;5042324;27;97090;-71
2024/02/17 00:48:43;;;;;;;6.30;4.38;;;;;;;15.47;87.84;101580.47;5038585;27;98870;-70
2024/02/17 00:51:09;;;;;;;7.43;4.78;;;;;;;15.58;88.04;101585.34;5037176;27;97695;-69
2024/02/17 00:53:37;;;;;;;4.60;3.53;;;;;;;15.42;88.80;101606.44;5032047;27;97060;-70
2024/02/17 00:56:06;;;;;;;5.63;4.20;;;;;;;15.55;88.18;101604.16;5031180;27;97240;-70
2024/02/17 00:58:32;;;;;;;5.72;4.20;;;;;;;15.46;87.93;101610.69;5032040;27;99327;-69
2024/02/17 01:00:59;;;;;;;6.13;3.90;;;;;;;15.28;89.24;101622.13;5031070;27;98548;-70
2024/02/17 01:03:25;;;;;;;5.35;3.83;;;;;;;15.12;89.46;101621.84;5031055;27;97032;-77
2024/02/17 01:05:52;;;;;;;5.45;3.88;;;;;;;15.13;89.68;101622.72;5031770;27;96985;-76
2024/02/17 01:08:18;;;;;;;5.93;3.45;;;;;;;14.65;90.79;101628.19;5035307;27;98884;-77
2024/02/17 01:10:45;;;;;;;4.70;3.53;;;;;;;14.62;93.00;101637.16;5035114;27;98870;-76
2024/02/17 01:13:13;;;;;;;3.58;3.10;;;;;;;14.60;92.36;101628.38;5028411;27;96905;-77
2024/02/17 01:15:40;;;;;;;3.17;2.85;;;;;;;14.92;90.55;101635.09;5038755;27;97168;-78
2024/02/17 01:18:07;;;;;;;4.10;3.30;;;;;;;14.93;89.60;101636.84;5031504;27;97796;-78
2024/02/17 01:20:36;;;;;;;5.25;2.40;;;;;;;14.81;89.46;101645.28;5037314;27;100026;-77
2024/02/17 01:23:02;;;;;;;7.28;2.55;;;;;;;14.76;89.77;101644.63;5034433;27;96739;-77
2024/02/17 01:25:29;;;;;;;3.80;3.13;;;;;;;14.94;88.68;101643.03;5032203;27;97267;-77
2024/02/17 01:27:55;;;;;;;4.10;2.40;;;;;;;14.83;88.72;101648.78;5036814;27;97867;-76
2024/02/17 01:30:23;;;;;;;3.15;2.17;;;;;;;14.25;91.65;101647.38;5032909;27;101478;-77
2024/02/17 01:32:49;;;;;;;3.65;2.55;;;;;;;14.61;90.14;101643.41;5028464;27;97313;-76
2024/02/17 01:35:15;;;;;;;2.83;2.20;;;;;;;14.74;88.89;101636.69;5034308;27;97486;-76
2024/02/17 01:37:42;;;;;;;2.35;1.90;;;;;;;14.50;89.12;101639.41;5040055;27;97853;-76
2024/02/17 01:40:09;;;;;;;3.55;1.90;;;;;;;14.81;87.92;101636.44;5035425;27;98778;-76
2024/02/17 01:42:35;;;;;;;2.72;2.08;;;;;;;15.04;87.06;101633.72;5032517;27;96719;-76
2024/02/17 01:45:03;;;;;;;3.38;2.10;;;;;;;14.89;87.25;101640.56;5038678;27;96963;-76
2024/02/17 01:47:31;;;;;;;3.25;2.00;;;;;;;14.75;87.63;101635.75;5030662;27;98040;-76
2024/02/17 01:49:58;;;;;;;2.28;2.03;;;;;;;14.86;87.39;101637.13;5031818;27;99242;-76
2024/02/17 01:52:24;;;;;;;2.33;2.10;;;;;;;14.56;88.77;101637.41;5031933;27;97195;-76
2024/02/17 01:54:51;;;;;;;5.70;2.10;;;;;;;14.84;87.58;101636.31;5032794;27;96864;-76
2024/02/17 01:57:17;;;;;;;2.78;2.05;;;;;;;14.91;87.14;101643.13;5037145;27;99250;-77
2024/02/17 01:59:44;;;;;;;2.22;2.03;;;;;;;14.72;87.41;101642.97;5032441;27;101616;-69
2024/02/17 02:02:10;;;;;;;2.85;2.05;;;;;;;14.90;86.65;101644.91;5041074;27;100245;-69
2024/02/17 02:04:38;;;;;;;2.50;2.00;;;;;;;14.85;86.92;101644.25;5034991;27;97054;-70
2024/02/17 02:07:05;;;;;;;3.58;2.38;;;;;;;14.42;87.78;101653.00;5035784;27;102002;-69
2024/02/17 02:09:31;;;;;;;3.22;2.05;;;;;;;14.43;88.87;101651.22;5030219;27;98848;-70
2024/02/17 02:11:57;;;;;;;2.80;1.98;;;;;;;14.04;90.30;101642.84;5037377;27;97685;-70
2024/02/17 02:14:24;;;;;;;2.50;2.05;;;;;;;14.06;90.01;101651.63;5036286;27;97000;-69
2024/02/17 02:16:51;;;;;;;3.85;2.28;;;;;;;14.45;89.39;101654.66;5034994;27;97793;-69
2024/02/17 02:19:17;;;;;;;2.38;2.17;;;;;;;14.21;89.35;101649.28;5036057;27;98834;-70
2024/02/17 02:21:45;;;;;;;2.97;2.40;;;;;;;14.11;90.51;101660.31;5029285;27;97294;-69
2024/02/17 02:24:12;;;;;;;3.55;2.40;;;;;;;13.91;91.83;101658.38;5030128;27;97552;-69
2024/02/17 02:26:39;;;;;;;2.70;2.50;;;;;;;14.09;91.13;101659.50;5036285;27;99223;-69
2024/02/17 02:29:06;;;;;;;3.20;2.45;;;;;;;14.15;90.29;101657.50;5030706;27;96762;-69
2024/02/17 02:31:32;;;;;;;4.45;2.55;;;;;;;14.25;90.13;101658.00;5034272;27;97107;-71
2024/02/17 02:33:59;;;;;;;3.40;2.75;;;;;;;14.32;89.68;101659.53;5035116;27;97262;-70
2024/02/17 02:36:25;;;;;;;4.72;2.67;;;;;;;14.08;90.28;101657.75;5030241;27;99254;-69
2024/02/17 02:38:53;;;;;;;3.65;2.58;;;;;;;14.14;90.03;101663.72;5032922;27;98980;-68
2024/02/17 02:41:19;;;;;;;3.15;2.85;;;;;;;14.18;90.28;101664.47;5033095;27;97280;-69
2024/02/17 02:43:48;;;;;;;3.85;3.30;;;;;;;13.95;91.06;101671.47;5030652;27;96953;-70
2024/02/17 02:46:14;;;;;;;5.43;3.08;;;;;;;13.96;91.21;101667.91;5037702;27;98153;-69
2024/02/17 02:48:41;;;;;;;3.58;3.15;;;;;;;14.32;89.54;101659.53;5034992;27;98921;-69
2024/02/17 02:51:08;;;;;;;5.10;3.45;;;;;;;14.21;90.16;101653.75;5035977;27;96810;-69
2024/02/17 02:53:34;;;;;;;5.43;3.70;;;;;;;13.95;91.20;101660.84;5032873;27;97367;-69
2024/02/17 02:56:01;;;;;;;4.10;3.22;;;;;;;13.61;93.54;101660.25;5039623;27;99313;-69
2024/02/17 02:58:28;;;;;;;4.43;3.50;;;;;;;13.68;93.53;101659.13;5033775;27;99237;-69
2024/02/17 03:00:55;;;;;;;6.20;4.05;;;;;;;13.77;92.59;101663.28;5037253;27;97136;-70
2024/02/17 03:03:22;;;;;;;4.88;4.00;;;;;;;13.83;92.34;101669.25;5031737;27;98285;-70
2024/02/17 03:05:48;;;;;;;7.38;4.07;;;;;;;13.91;92.03;101666.34;5036408;27;99132;-69
2024/02/17 03:08:14;;;;;;;5.18;3.85;;;;;;;13.85;92.16;101667.38;5032918;27;99261;-70
2024/02/17 03:10:41;;;;;;;8.32;3.80;;;;;;;13.26;95.39;101674.69;5032563;27;97774;-69
2024/02/17 03:13:07;;;;;;;5.78;4.00;;;;;;;13.31;95.90;101674.56;5039999;27;97149;-69
2024/02/17 03:15:33;;;;;;;5.72;4.25;;;;;;;13.53;95.57;101672.91;5036445;27;98787;-69
2024/02/17 03:18:01;;;;;;;5.40;3.88;;;;;;;13.40;95.04;101675.09;5037093;27;98943;-70
2024/02/17 03:20:28;;;;;;;6.22;4.40;;;;;;;13.19;96.88;101680.25;5036600;27;96818;-68
2024/02/17 03:22:54;;;;;;;7.68;4.70;;;;;;;13.52;95.57;101689.81;5042492;27;96951;-69
2024/02/17 03:25:20;;;;;;;5.30;4.40;;;;;;;13.60;94.67;101694.84;5038784;27;99318;-70
2024/02/17 03:27:47;;;;;;;6.30;4.55;;;;;;;13.78;93.40;101695.13;5033464;27;99376;-69
2024/02/17 03:30:14;;;;;;;5.70;4.53;;;;;;;13.96;92.66;101705.09;5037552;27;98889;-68
2024/02/17 03:32:40;;;;;;;5.65;4.25;;;;;;;13.78;93.24;101704.88;5030161;27;97753;-69
2024/02/17 03:35:09;;;;;;;5.60;4.75;;;;;;;13.64;94.61;101707.97;5038138;27;99042;-69
2024/02/17 03:37:35;;;;;;;5.65;4.78;;;;;;;13.31;96.97;101703.75;5031715;27;101994;-69
2024/02/17 03:40:06;;;;;;;6.13;4.97;;;;;;;13.73;94.84;101712.09;5041052;27;97418;-70
2024/02/17 03:42:33;;;;;;;8.07;4.15;;;;;;;13.61;94.81;101708.06;5030960;27;97177;-70
2024/02/17 03:44:59;;;;;;;6.15;4.85;;;;;;;13.84;93.95;101712.63;5037554;27;101223;-71
2024/02/17 03:47:25;;;;;;;6.63;5.20;;;;;;;13.82;94.29;101720.66;5032895;27;99006;-69
2024/02/17 03:49:51;;;;;;;10.88;5.38;;;;;;;13.77;94.11;101722.59;5038835;27;97809;-70
2024/02/17 03:52:19;;;;;;;9.05;5.28;;;;;;;13.98;92.93;101729.81;5037515;27;97154;-70
2024/02/17 03:54:45;;;;;;;7.32;5.15;;;;;;;14.09;92.69;101732.13;5035080;27;99124;-69
2024/02/17 03:57:13;;;;;;;6.88;4.95;;;;;;;14.02;92.99;101729.72;5032214;27;98823;-70
2024/02/17 03:59:40;;;;;;;5.88;5.00;;;;;;;14.10;92.18;101727.69;5035561;27;97399;-70
2024/02/17 04:02:06;;;;;;;6.28;5.07;;;;;;;13.95;92.80;101731.72;5036100;27;96838;-70
2024/02/17 04:04:33;;;;;;;6.78;5.03;;;;;;;14.01;92.93;101739.47;5032380;27;100796;-69
2024/02/17 04:06:59;;;;;;;5.32;4.70;;;;;;;13.97;93.56;101740.53;5039355;27;97508;-70
2024/02/17 04:09:26;;;;;;;6.75;5.15;;;;;;;13.95;92.83;101737.91;5035952;27;96886;-70
2024/02/17 04:11:53;;;;;;;7.30;5.68;;;;;;;13.86;94.12;101740.00;5033110;27;98075;-70
2024/02/17 04:14:19;;;;;;;5.45;4.18;;;;;;;13.71;94.38;101751.16;5033307;27;98157;-70
2024/02/17 04:16:46;;;;;;;6.38;5.32;;;;;;;13.53;95.14;101753.44;5025017;27;98559;-69
2024/02/17 04:19:12;;;;;;;9.18;5.57;;;;;;;13.39;96.66;101745.06;5026058;27;97761;-70
2024/02/17 04:21:39;;;;;;;7.57;5.90;;;;;;;13.23;97.40;101754.41;5032987;27;97177;-69
2024/02/17 04:24:06;;;;;;;7.15;5.68;;;;;;;13.52;96.31;101761.50;5029251;27;99585;-69
2024/02/17 04:26:34;;;;;;;8.75;6.18;;;;;;;13.78;94.87;101760.66;5037694;27;99611;-70
2024/02/17 04:29:00;;;;;;;13.95;6.53;;;;;;;13.49;95.75;101764.22;5033398;27;96791;-69
2024/02/17 04:31:27;;;;;;;10.23;6.18;;;;;;;13.61;95.59;101770.94;5041779;27;96921;-69
2024/02/17 04:33:56;;;;;;;8.85;5.80;;;;;;;13.86;94.33;101771.88;5030574;27;99584;-69
2024/02/17 04:36:23;;;;;;;10.80;6.05;;;;;;;13.85;93.63;101770.13;5041505;27;99847;-70
2024/02/17 04:38:49;;;;;;;7.15;6.30;;;;;;;13.68;94.73;101773.34;5036300;27;96956;-69
2024/02/17 04:41:15;;;;;;;7.55;5.97;;;;;;;13.79;94.03;101778.31;5035214;27;96850;-69
2024/02/17 04:43:45;;;;;;;8.02;6.35;;;;;;;13.45;95.69;101783.84;5036366;27;97010;-69
2024/02/17 04:46:11;;;;;;;7.43;6.10;;;;;;;13.65;95.35;101785.88;5033777;27;101523;-69
2024/02/17 04:48:38;;;;;;;8.13;6.10;;;;;;;13.70;94.20;101782.16;5030072;27;97013;-69
2024/02/17 04:51:05;;;;;;;13.30;6.13;;;;;;;13.55;95.16;101782.63;5035904;27;97022;-69
2024/02/17 04:53:31;;;;;;;9.52;5.68;;;;;;;13.44;95.14;101779.44;5032487;27;98274;-70
2024/02/17 04:55:57;;;;;;;8.57;6.40;;;;;;;13.71;94.40;101778.56;5037617;27;97827;-69
2024/02/17 04:58:24;;;;;;;9.43;6.03;;;;;;;13.71;92.92;101783.03;5030394;27;96720;-69
2024/02/17 05:00:51;;;;;;;8.20;6.03;;;;;;;13.34;94.83;101784.16;5040300;27;96948;-68
2024/02/17 05:03:18;;;;;;;8.65;5.72;;;;;;;13.54;93.65;101787.06;5033881;27;102209;-69
2024/02/17 05:05:45;;;;;;;8.13;6.05;;;;;;;13.49;94.10;101788.13;5039975;27;99362;-70
2024/02/17 05:08:11;;;;;;;12.45;6.50;;;;;;;13.59;92.42;101788.72;5034249;27;97675;-69
2024/02/17 05:10:39;;;;;;;9.43;6.18;;;;;;;13.38;92.05;101796.44;5041409;27;97897;-70
2024/02/17 05:13:05;;;;;;;9.27;5.88;;;;;;;13.23;92.90;101796.88;5033854;27;97948;-70
2024/02/17 05:15:32;;;;;;;10.00;5.95;;;;;;;13.51;91.34;101808.41;5033624;27;99235;-70
2024/02/17 05:17:59;;;;;;;9.23;6.13;;;;;;;13.47;90.76;101797.91;5032600;27;97238;-71
2024/02/17 05:20:26;;;;;;;11.05;5.93;;;;;;;13.71;89.52;101807.78;5038228;27;96964;-69
2024/02/17 05:22:52;;;;;;;10.50;5.95;;;;;;;13.75;88.12;101812.09;5032940;27;99162;-69
2024/02/17 05:25:18;;;;;;;10.80;5.38;;;;;;;13.76;88.24;101813.81;5043217;27;98953;-70
2024/02/17 05:27:45;;;;;;;7.85;5.43;;;;;;;13.40;89.47;101826.44;5033861;27;97413;-70
2024/02/17 05:30:14;;;;;;;8.93;5.28;;;;;;;13.40;89.16;101820.25;5031693;27;98125;-70
2024/02/17 05:32:40;;;;;;;8.10;5.95;;;;;;;13.47;88.63;101819.16;5032474;27;99096;-69
2024/02/17 05:35:09;;;;;;;9.70;5.93;;;;;;;13.40;88.91;101828.22;5026517;27;99509;-70
2024/02/17 05:37:35;;;;;;;11.07;6.10;;;;;;;13.56;88.55;101829.50;5032773;27;97261;-69
2024/02/17 05:40:03;;;;;;;8.77;5.47;;;;;;;13.45;88.33;101836.94;5039741;27;96785;-70
2024/02/17 05:42:29;;;;;;;11.98;6.13;;;;;;;13.28;88.89;101831.25;5033644;27;101183;-68
2024/02/17 05:44:56;;;;;;;11.75;5.45;;;;;;;13.40;88.51;101841.50;5029022;27;100640;-69
2024/02/17 05:47:24;;;;;;;10.15;6.10;;;;;;;13.28;87.99;101839.19;5031747;27;97715;-69
2024/02/17 05:49:50;;;;;;;7.50;5.00;;;;;;;13.35;86.72;101849.59;5037611;27;99509;-69
2024/02/17 05:52:18;;;;;;;9.50;5.13;;;;;;;12.84;89.11;101853.72;5032641;27;98905;-70
2024/02/17 05:54:44;;;;;;;10.75;6.18;;;;;;;13.09;88.04;101850.31;5029764;27;98645;-69
2024/02/17 05:57:11;;;;;;;10.52;5.90;;;;;;;13.20;86.41;101841.19;5029658;27;96726;-69
2024/02/17 05:59:37;;;;;;;8.02;4.43;;;;;;;12.65;87.86;101856.88;5033703;27;96842;-69
2024/02/17 06:02:04;;;;;;;10.63;5.70;;;;;;;12.51;89.08;101860.78;5031864;27;99482;-69
2024/02/17 06:04:31;;;;;;;9.02;4.93;;;;;;;12.86;87.30;101866.03;5030870;27;100977;-69
2024/02/17 06:06:57;;;;;;;12.38;4.80;;;;;;;12.68;86.42;101872.69;5031069;27;96768;-69
2024/02/17 06:09:25;;;;;;;8.02;4.38;;;;;;;12.64;87.28;101880.75;5034636;27;96837;-70
2024/02/17 06:11:51;;;;;;;9.63;4.72;;;;;;;12.81;85.33;101897.09;5029923;27;99017;-68
2024/02/17 06:14:18;;;;;;;10.63;4.95;;;;;;;13.34;83.47;101889.47;5033753;27;98855;-69
2024/02/17 06:16:44;;;;;;;8.05;4.50;;;;;;;13.54;81.92;101895.94;5030675;27;97122;-70
2024/02/17 06:21:55;;;;;;;8.77;5.22;;;;;;;13.43;82.77;101905.13;5035591;27;97084;-69
2024/02/17 06:24:22;;;;;;;8.35;5.40;;;;;;;13.46;82.52;101920.97;5035649;27;98926;-69
2024/02/17 06:26:50;;;;;;;11.15;5.47;;;;;;;12.93;84.54;101928.59;5038741;27;99187;-69
2024/02/17 06:29:16;;;;;;;7.85;4.90;;;;;;;12.91;84.86;101924.25;5037424;27;97035;-70
2024/02/17 06:31:42;;;;;;;10.07;5.20;;;;;;;13.00;84.98;101939.91;5036854;27;98941;-70
2024/02/17 06:34:09;;;;;;;10.25;5.90;;;;;;;12.78;85.92;101943.16;5038167;27;99572;-72
2024/02/17 06:36:36;;;;;;;6.70;4.97;;;;;;;13.22;84.00;101942.91;5034455;27;97046;-70
2024/02/17 06:39:03;;;;;;;10.98;5.57;;;;;;;12.62;86.18;101954.16;5034035;27;96961;-69
2024/02/17 06:41:30;;;;;;;10.82;5.20;;;;;;;12.69;86.25;101951.31;5030729;27;97931;-69
2024/02/17 06:43:58;;;;;;;10.43;5.43;;;;;;;12.64;86.06;101955.00;5034573;27;98869;-69
2024/02/17 06:46:26;;;;;;;10.35;5.20;;;;;;;12.66;86.09;101961.16;5031930;27;96759;-70
2024/02/17 06:48:53;;;;;;;9.07;6.05;;;;;;;12.76;85.13;101955.56;5034317;27;98521;-70
2024/02/17 06:51:20;;;;;;;10.43;5.22;;;;;;;12.83;85.72;101958.94;5039030;27;98944;-70
2024/02/17 06:53:47;;;;;;;9.90;4.03;;;;;;;12.76;85.20;101970.59;5035203;27;98865;-69
2024/02/17 06:56:13;;;;;;;10.70;5.35;;;;;;;12.69;85.76;101966.38;5034864;27;98075;-69
2024/02/17 06:58:41;;;;;;;11.35;5.63;;;;;;;12.89;85.63;101973.81;5035437;27;97813;-70
2024/02/17 07:01:09;;;;;;;7.22;4.68;;;;;;;13.50;82.55;101975.75;5037365;27;98895;-70
2024/02/17 07:03:35;;;;;;;8.35;4.72;;;;;;;13.37;82.02;101982.31;5036636;27;99180;-69
2024/02/17 07:06:01;;;;;;;7.60;4.88;;;;;;;13.48;81.87;101988.19;5035337;27;96725;-69
2024/02/17 07:08:29;;;;;;;12.15;5.10;;;;;;;13.45;82.07;101989.16;5034006;27;97850;-69
2024/02/17 07:10:55;;;;;;;8.18;5.00;;;;;;;13.94;80.16;101991.25;5036099;27;97645;-70
2024/02/17 07:13:22;;;;;;;9.98;5.00;;;;;;;13.43;80.89;102000.72;5038467;27;98799;-69
2024/02/17 07:15:49;;;;;;;10.15;4.65;;;;;;;13.45;81.27;101997.13;5034441;27;96724;-71
2024/02/17 07:18:16;;;;;;;6.55;4.30;;;;;;;12.97;82.82;102004.56;5033199;27;96932;-69
2024/02/17 07:20:44;;;;;;;9.38;4.63;;;;;;;13.06;82.24;102012.25;5037285;27;99439;-69
2024/02/17 07:23:13;;;;;;;7.68;4.88;;;;;;;12.83;82.92;102004.03;5034884;27;98782;-69
2024/02/17 07:25:41;;;;;;;10.25;4.28;;;;;;;12.92;83.45;102009.13;5045392;27;96858;-70
2024/02/17 07:28:11;;;;;;;5.57;4.05;;;;;;;12.99;83.20;102008.06;5040727;27;96746;-71
2024/02/17 07:30:41;;;;;;;8.45;4.53;;;;;;;13.13;81.96;102020.97;5039120;27;99502;-70
2024/02/17 07:33:08;;;;;;;6.70;3.95;;;;;;;13.27;81.49;102028.56;5035131;27;98643;-70
2024/02/17 07:35:37;;;;;;;7.88;4.18;;;;;;;13.30;81.25;102026.72;5035777;27;97051;-69
2024/02/17 07:38:05;;;;;;;7.85;3.90;;;;;;;12.54;83.43;102030.38;5032858;27;97256;-70
2024/02/17 07:40:31;;;;;;;7.57;3.92;;;;;;;12.54;84.47;102043.63;5035727;27;98102;-70
2024/02/17 07:42:57;;;;;;;6.22;3.33;;;;;;;12.81;83.67;102031.50;5032445;27;97591;-69
2024/02/17 07:45:24;;;;;;;9.45;3.90;;;;;;;12.79;83.09;102036.84;5038321;27;96906;-69
2024/02/17 07:47:50;;;;;;;7.38;3.83;;;;;;;12.81;82.72;102044.75;5033194;27;97223;-69
2024/02/17 07:50:17;;;;;;;7.20;3.70;;;;;;;12.85;83.37;102049.09;5039709;27;97607;-70
2024/02/17 07:52:44;;;;;;;6.07;3.38;;;;;;;12.64;82.66;102051.34;5039461;27;99266;-70
2024/02/17 07:55:11;;;;;;;8.90;3.80;;;;;;;12.80;83.28;102046.53;5030522;27;96777;-70
2024/02/17 07:57:37;;;;;;;7.43;3.47;;;;;;;13.15;81.17;102053.66;5034211;27;96942;-70
2024/02/17 08:00:04;;;;;;;7.60;3.42;;;;;;;12.87;81.46;102057.88;5037120;27;98883;-70
2024/02/17 08:02:31;;;;;;;13.25;4.30;;;;;;;13.12;81.47;102064.34;5040992;27;98773;-70
2024/02/17 08:04:57;;;;;;;6.47;3.25;;;;;;;13.47;80.01;102060.78;5036789;27;96777;-70
2024/02/17 08:07:24;;;;;;;8.63;4.20;;;;;;;13.40;79.69;102070.69;5037162;27;97679;-69
2024/02/17 08:09:51;;;;;;;7.30;2.88;;;;;;;13.20;79.20;102073.00;5033141;27;100454;-70
2024/02/17 08:12:18;;;;;;;5.82;2.90;;;;;;;13.33;79.05;102071.75;5036037;27;99066;-69
2024/02/17 08:14:44;;;;;;;6.63;3.15;;;;;;;13.41;78.29;102075.09;5034309;27;96877;-69
2024/02/17 08:17:11;;;;;;;5.45;2.40;;;;;;;13.74;76.81;102083.94;5034821;27;97176;-70
2024/02/17 08:19:38;;;;;;;6.57;2.85;;;;;;;13.50;76.61;102087.28;5033828;27;98905;-70
2024/02/17 08:22:05;;;;;;;7.25;2.33;;;;;;;13.60;75.75;102088.75;5033778;27;99186;-69
2024/02/17 08:24:31;;;;;;;4.55;2.20;;;;;;;13.56;75.08;102093.28;5036925;27;97552;-71
2024/02/17 08:26:59;;;;;;;5.38;2.75;;;;;;;13.59;75.62;102100.28;5030699;27;97208;-69
2024/02/17 08:29:25;;;;;;;6.30;2.30;;;;;;;14.15;73.00;102096.06;5043767;27;98754;-70
2024/02/17 08:31:52;;;;;;;5.75;2.55;;;;;;;14.40;71.72;102104.22;5037759;27;99090;-70
2024/02/17 08:34:19;;;;;;;6.07;2.20;;;;;;;14.16;72.09;102102.25;5037571;27;97333;-70
2024/02/17 08:36:45;;;;;;;4.90;1.83;;;;;;;14.32;71.13;102111.50;5032616;27;96829;-69
2024/02/17 08:39:13;;;;;;;9.35;3.88;;;;;;;14.18;71.20;102113.69;5036853;27;98925;-70
2024/02/17 08:41:41;;;;;;;4.32;1.80;;;;;;;14.47;70.76;102116.44;5036690;27;97907;-70
2024/02/17 08:44:09;;;;;;;4.00;1.75;;;;;;;14.54;69.60;102115.31;5032886;27;97902;-77
2024/02/17 08:46:35;;;;;;;7.45;1.75;;;;;;;14.18;70.28;102119.03;5040135;27;97354;-77
2024/02/17 08:49:02;;;;;;;2.40;1.35;;;;;;;13.94;71.34;102123.25;5035595;27;99858;-76
2024/02/17 08:51:28;;;;;;;6.47;3.97;;;;;;;14.57;69.57;102133.84;5037118;27;98162;-76
2024/02/17 08:53:53;;;;;;;6.78;1.50;;;;;;;15.05;68.10;102138.56;5028347;27;97724;-76
2024/02/17 08:56:20;;;;;;;;;;;;;;;14.99;68.56;102141.41;5039008;27;97425;-76
2024/02/17 08:58:46;;;;;;;5.22;2.42;;;;;;;15.16;69.33;102157.75;5038484;27;99407;-76
2024/02/17 09:01:14;;;;;;;4.53;1.50;;;;;;;14.98;70.36;102159.19;5042706;27;98925;-76
2024/02/17 09:03:43;;;;;;;2.53;1.10;;;;;;;15.26;69.84;102167.16;5033846;27;96864;-76
2024/02/17 09:06:10;;;;;;;4.00;0.95;;;;;;;15.11;70.17;102164.97;5030789;27;97443;-76
2024/02/17 09:08:36;;;;;;;1.50;0.90;;;;;;;14.94;69.61;102169.97;5029301;27;99131;-76
2024/02/17 09:11:02;;;;;;;3.22;0.75;;;;;;;14.97;69.08;102192.03;5032781;27;99046;-76
2024/02/17 09:13:29;;;;;;;1.58;0.60;;;;;;;14.79;67.64;102184.63;5032561;27;97139;-76
2024/02/17 09:15:55;;;;;;;3.03;0.80;;;;;;;14.92;67.75;102201.09;5034192;27;96899;-77
2024/02/17 09:18:24;;;;;;;2.28;0.40;;;;;;;14.65;66.65;102185.03;5031517;27;99367;-76
2024/02/17 09:20:51;;;;;;;1.75;0.50;;;;;;;14.97;65.64;102193.81;5031409;27;99007;-77
2024/02/17 09:23:17;;;;;;;1.83;0.60;;;;;;;15.05;64.43;102199.78;5036049;27;97528;-75
2024/02/17 09:25:44;;;;;;;2.80;0.60;;;;;;;15.02;63.66;102205.22;5031840;27;97035;-77
2024/02/17 09:28:10;;;;;;;1.40;0.40;;;;;;;15.20;62.26;102201.09;5026326;27;99598;-75
2024/02/17 09:30:38;;;;;;;0.90;0.50;;;;;;;15.20;62.47;102215.28;5034670;27;99446;-77
2024/02/17 09:33:04;;;;;;;0.60;0.30;;;;;;;15.53;61.06;102214.25;5029360;27;97803;-76
2024/02/17 09:35:32;;;;;;;0.82;0.30;;;;;;;15.49;60.32;102228.53;5032484;27;96903;-77
2024/02/17 09:37:59;;;;;;;0.50;0.40;;;;;;;15.43;60.25;102230.53;5027946;27;99083;-78
2024/02/17 09:40:25;;;;;;;0.60;0.30;;;;;;;15.63;59.74;102235.25;5037907;27;100584;-77
2024/02/17 09:42:52;;;;;;;0.60;0.30;;;;;;;15.90;58.57;102235.19;5034964;27;98115;-77
2024/02/17 09:45:18;;;;;;;1.10;0.38;;;;;;;15.87;57.53;102231.78;5033965;27;96944;-76
2024/02/17 09:47:45;;;;;;;2.58;1.50;;;;;;;15.74;57.78;102244.66;5028159;27;101575;-77
2024/02/17 09:50:12;;;;;;;1.45;0.43;;;;;;;15.09;58.82;102244.06;5029547;27;97873;-76
2024/02/17 09:52:40;;;;;;;1.15;0.30;;;;;;;15.21;58.85;102241.00;5032754;27;97233;-76
2024/02/17 09:55:08;;;;;;;2.40;0.70;;;;;;;14.66;60.37;102258.59;5032200;27;97998;-77
2024/02/17 09:57:34;;;;;;;1.42;0.40;;;;;;;14.85;61.13;102255.41;5027373;27;99409;-76
2024/02/17 10:00:05;;;;;;;0.60;0.50;;;;;;;15.48;58.48;102264.13;5032639;27;99158;-76
2024/02/17 10:02:32;;;;;;;1.63;0.50;;;;;;;15.49;58.52;102265.00;5029012;27;96854;-76
2024/02/17 10:04:58;;;;;;;2.10;0.40;;;;;;;15.74;57.40;102265.09;5027383;27;96991;-77
2024/02/17 10:07:25;;;;;;;0.47;0.30;;;;;;;15.78;57.32;102277.38;5035113;27;99603;-76
2024/02/17 10:09:52;;;;;;;0.35;0.20;;;;;;;15.04;57.77;102265.47;5033678;27;99233;-76
2024/02/17 10:12:19;;;;;;;11.15;3.95;;;;;;;15.32;57.34;102269.94;5036245;27;97004;-76
2024/02/17 10:14:51;;;;;;;1.67;0.98;;;;;;;15.17;55.97;102292.59;5030245;27;96938;-76
2024/02/17 10:17:17;;;;;;;0.32;0.22;;;;;;;14.41;55.96;102289.47;5036033;27;99404;-77
2024/02/17 10:19:44;;;;;;;1.77;0.52;;;;;;;14.79;55.90;102300.84;5038313;27;101006;-77
2024/02/17 10:22:11;;;;;;;0.30;0.30;;;;;;;14.54;55.56;102300.66;5043512;27;96858;-77
2024/02/17 10:24:38;;;;;;;0.88;0.40;;;;;;;14.55;55.99;102305.06;5037913;27;97735;-78
2024/02/17 10:27:06;;;;;;;1.08;0.20;;;;;;;14.70;55.65;102307.31;5041093;27;98929;-77
2024/02/17 10:29:33;;;;;;;2.03;0.40;;;;;;;14.52;55.70;102311.31;5042160;27;101423;-77
2024/02/17 10:32:00;;;;;;;2.17;0.77;;;;;;;15.18;53.71;102306.78;5041802;27;98020;-76
2024/02/17 10:34:27;;;;;;;1.40;0.68;;;;;;;15.36;53.11;102308.91;5035811;27;96867;-76
2024/02/17 10:36:55;;;;;;;1.45;0.60;;;;;;;15.79;51.12;102309.31;5036447;27;99007;-75
2024/02/17 10:39:22;;;;;;;1.48;0.50;;;;;;;15.33;51.26;102317.84;5034868;27;98761;-77
2024/02/17 10:41:49;;;;;;;0.73;0.60;;;;;;;15.29;50.73;102321.53;5039880;27;96788;-76
2024/02/17 10:44:17;;;;;;;2.20;0.45;;;;;;;14.93;51.09;102322.59;5035410;27;96956;-76
2024/02/17 10:46:53;;;;;;;0.82;0.60;;;;;;;15.13;50.84;102337.09;5035955;27;97606;-78
2024/02/17 10:49:27;;;;;;;1.38;0.50;;;;;;;15.11;51.11;102343.38;5039366;27;97741;-78
2024/02/17 10:51:58;;;;;;;0.70;0.60;;;;;;;15.25;50.72;102337.63;5038551;27;96751;-77
2024/02/17 10:54:33;;;;;;;1.42;0.50;;;;;;;15.57;49.67;102347.34;5035266;27;97378;-77
2024/02/17 10:57:03;;;;;;;0.98;0.45;;;;;;;15.44;49.82;102349.47;5034534;27;97764;-77
2024/02/17 10:59:33;;;;;;;0.70;0.43;;;;;;;15.18;50.30;102358.25;5037049;27;101857;-77
2024/02/17 11:02:00;;;;;;;0.43;0.40;;;;;;;14.16;52.08;102360.13;5036261;27;97514;-77
2024/02/17 11:04:28;;;;;;;2.17;0.40;;;;;;;14.32;52.58;102369.44;5036229;27;96869;-77
2024/02/17 11:06:55;;;;;;;2.67;0.20;;;;;;;14.83;50.84;102359.28;5036111;27;97760;-77
2024/02/17 11:09:22;;;;;;;0.40;0.25;;;;;;;14.75;51.00;102366.56;5036954;27;100786;-77
2024/02/17 11:11:50;;;;;;;1.45;0.73;;;;;;;14.85;50.73;102377.81;5032397;27;96932;-77
2024/02/17 11:14:41;;;;;;;0.20;0.20;;;;;;;13.83;52.08;102383.06;5037206;27;96766;-76
2024/02/17 11:17:10;;;;;;;0.50;0.30;;;;;;;13.82;52.38;102386.63;5032316;27;99349;-76
2024/02/17 11:19:37;;;;;;;2.58;0.70;;;;;;;13.81;52.31;102388.41;5031356;27;99126;-77
2024/02/17 11:22:06;;;;;;;1.30;0.57;;;;;;;14.31;50.60;102397.81;5036377;27;97254;-77
2024/02/17 11:24:36;;;;;;;4.80;0.60;;;;;;;14.72;49.04;102393.25;5034973;27;97062;-77
2024/02/17 11:27:04;;;;;;;2.00;0.50;;;;;;;14.85;48.82;102396.47;5033847;27;97241;-76